Time;durP1;ratioP1;P1;durP2;ratioP2;P2;SDS_P1;SDS_P2;PMS_P1;PMS_P2;Temp;Humidity;BMP_temperature;BMP_pressure;BME280_temperature;BME280_humidity;BME280_pressure;Samples;Min_cycle;Max_cycle;Signal;HPM_P1;HPM_P2
2023/03/11 00:01:48;;;;;;;3.90;3.25;;;;;;;9.41;80.42;92893.69;5011451;28;20021;-87
2023/03/11 00:04:15;;;;;;;4.50;3.38;;;;;;;9.25;79.84;92857.47;5018808;28;20063;-87
2023/03/11 00:06:40;;;;;;;6.28;4.20;;;;;;;9.36;79.71;92873.47;5012486;28;20045;-87
2023/03/11 00:09:06;;;;;;;10.70;4.97;;;;;;;8.91;79.72;92815.31;5005345;28;20511;-87
2023/03/11 00:11:33;;;;;;;4.85;4.35;;;;;;;9.25;80.03;92863.47;5026260;28;20040;-87
2023/03/11 00:14:03;;;;;;;5.00;3.85;;;;;;;9.68;80.50;92952.09;5027132;28;20149;-87
2023/03/11 00:16:29;;;;;;;5.50;4.43;;;;;;;9.44;80.55;92929.66;5004664;28;20040;-88
2023/03/11 00:18:57;;;;;;;5.70;4.20;;;;;;;9.07;80.55;92866.25;4998768;28;20029;-87
2023/03/11 00:21:32;;;;;;;6.53;4.70;;;;;;;9.82;81.07;92990.31;5002673;28;20033;-87
2023/03/11 00:24:02;;;;;;;6.28;5.40;;;;;;;9.33;80.46;92906.66;5005263;28;20128;-86
2023/03/11 00:26:28;;;;;;;8.13;5.97;;;;;;;10.17;80.74;93039.31;5005947;28;20033;-86
2023/03/11 00:28:54;;;;;;;6.75;5.70;;;;;;;9.34;80.30;92919.47;5020007;28;20033;-87
2023/03/11 00:31:25;;;;;;;9.55;6.07;;;;;;;9.29;80.65;92916.56;5042859;28;20082;-86
2023/03/11 00:33:51;;;;;;;6.90;5.78;;;;;;;9.63;80.11;92967.34;5036278;28;20044;-86
2023/03/11 00:36:27;;;;;;;5.25;4.55;;;;;;;9.84;78.64;92995.34;4999895;28;20103;-86
2023/03/11 00:38:53;;;;;;;6.45;4.10;;;;;;;9.28;77.95;92877.88;4997579;28;20088;-86
2023/03/11 00:41:19;;;;;;;5.15;4.03;;;;;;;9.91;77.64;92977.31;5023421;28;20172;-87
2023/03/11 00:43:49;;;;;;;6.50;4.50;;;;;;;9.00;78.24;92851.53;5029443;28;20152;-87
2023/03/11 00:46:15;;;;;;;5.97;3.90;;;;;;;9.57;78.07;92908.41;5016485;28;20108;-86
2023/03/11 00:48:41;;;;;;;5.72;4.22;;;;;;;10.05;78.04;93010.34;5035811;28;20108;-86
2023/03/11 00:51:07;;;;;;;6.30;4.38;;;;;;;8.97;78.53;92868.22;5027763;28;20025;-86
2023/03/11 00:53:32;;;;;;;5.90;4.07;;;;;;;8.76;77.99;92821.31;5027134;28;20108;-86
2023/03/11 00:56:00;;;;;;;4.25;3.35;;;;;;;9.31;77.47;92903.47;5048356;28;20032;-86
2023/03/11 00:58:27;;;;;;;3.40;2.72;;;;;;;9.27;77.16;92897.78;5018410;28;20395;-86
2023/03/11 01:00:53;;;;;;;4.80;2.25;;;;;;;9.51;76.98;92947.94;5018526;28;20115;-86
2023/03/11 01:03:18;;;;;;;2.92;2.33;;;;;;;8.72;77.36;92829.44;5039326;28;20559;-86
2023/03/11 01:05:44;;;;;;;2.90;2.03;;;;;;;8.86;77.77;92859.03;5024033;28;20053;-86
2023/03/11 01:08:10;;;;;;;3.53;2.25;;;;;;;8.57;78.65;92832.81;5003230;28;20112;-86
2023/03/11 01:10:37;;;;;;;3.60;2.60;;;;;;;8.42;78.80;92799.03;5032126;28;20047;-85
2023/03/11 01:13:03;;;;;;;4.07;3.08;;;;;;;8.88;79.56;92879.56;5017738;28;20081;-86
2023/03/11 01:15:31;;;;;;;2.97;1.67;;;;;;;8.13;80.42;92852.00;4999698;28;20060;-86
2023/03/11 01:17:56;;;;;;;2.80;1.70;;;;;;;7.46;82.69;92828.75;5012721;28;20029;-88
2023/03/11 01:20:22;;;;;;;2.97;1.65;;;;;;;7.62;82.93;92828.00;5015690;28;20048;-85
2023/03/11 01:22:48;;;;;;;2.33;1.55;;;;;;;7.93;83.16;92886.91;5006174;28;20167;-85
2023/03/11 01:25:14;;;;;;;2.33;1.58;;;;;;;8.29;82.90;92921.06;4998815;28;20034;-86
2023/03/11 01:27:40;;;;;;;2.00;1.33;;;;;;;8.44;82.25;92926.47;5006446;28;20040;-85
2023/03/11 01:30:06;;;;;;;2.97;1.58;;;;;;;7.62;82.50;92791.84;5017614;28;20043;-85
2023/03/11 01:32:31;;;;;;;2.97;1.75;;;;;;;7.91;81.82;92832.78;5017927;28;20498;-86
2023/03/11 01:34:57;;;;;;;2.72;1.65;;;;;;;8.20;81.96;92888.41;5034627;28;20044;-86
2023/03/11 01:37:23;;;;;;;3.35;1.50;;;;;;;8.56;81.53;92947.69;5000536;28;20157;-85
2023/03/11 01:39:48;;;;;;;2.40;1.70;;;;;;;8.42;81.37;92895.59;5017958;28;20043;-85
2023/03/11 01:42:14;;;;;;;2.58;1.75;;;;;;;8.21;82.50;92902.97;5001287;28;20029;-85
2023/03/11 01:44:41;;;;;;;2.50;1.58;;;;;;;7.57;82.20;92768.25;5034300;28;20036;-86
2023/03/11 01:47:10;;;;;;;1.92;1.20;;;;;;;7.97;81.96;92837.31;4997954;28;20033;-86
2023/03/11 01:49:40;;;;;;;2.42;1.65;;;;;;;8.10;83.08;92874.81;5038319;28;20033;-85
2023/03/11 01:52:09;;;;;;;2.88;1.83;;;;;;;7.80;83.53;92825.28;4998436;28;20071;-85
2023/03/11 01:54:36;;;;;;;2.70;1.92;;;;;;;7.28;82.83;92702.31;4999101;28;20037;-85
2023/03/11 01:57:04;;;;;;;4.07;2.38;;;;;;;8.00;82.53;92818.88;4998260;28;20511;-85
2023/03/11 01:59:32;;;;;;;3.30;2.63;;;;;;;7.79;82.37;92808.97;4981698;28;20058;-85
2023/03/11 02:02:21;;;;;;;3.72;2.50;;;;;;;8.25;82.59;92889.56;5010542;28;20030;-86
2023/03/11 02:04:46;;;;;;;3.60;2.28;;;;;;;7.66;82.57;92813.81;5005252;28;20424;-85
2023/03/11 02:07:12;;;;;;;7.22;2.25;;;;;;;8.24;81.78;92884.53;4998672;28;20029;-86
2023/03/11 02:09:37;;;;;;;3.50;2.22;;;;;;;7.72;81.87;92802.03;5000909;28;20044;-85
2023/03/11 02:12:03;;;;;;;3.80;2.50;;;;;;;8.39;81.55;92898.50;4991309;28;20057;-85
2023/03/11 02:14:29;;;;;;;3.58;2.00;;;;;;;8.21;81.92;92893.41;4997758;28;20083;-86
2023/03/11 02:16:54;;;;;;;3.30;2.45;;;;;;;8.02;81.82;92845.41;4982078;28;20026;-86
2023/03/11 02:19:51;;;;;;;3.75;2.60;;;;;;;7.66;81.70;92806.06;4995224;28;20400;-86
2023/03/11 02:22:16;;;;;;;3.20;2.08;;;;;;;7.72;81.90;92841.63;5016187;28;20029;-88
2023/03/11 02:25:08;;;;;;;3.55;2.30;;;;;;;8.54;82.36;92962.56;5013878;28;20048;-84
2023/03/11 02:27:34;;;;;;;4.57;2.63;;;;;;;7.72;82.48;92836.44;5020823;28;20125;-84
2023/03/11 02:30:00;;;;;;;3.85;2.70;;;;;;;8.50;82.24;92947.34;5013137;28;20045;-86
2023/03/11 02:32:26;;;;;;;4.80;2.50;;;;;;;8.34;81.87;92923.19;4997205;28;20049;-85
2023/03/11 02:34:51;;;;;;;3.20;2.58;;;;;;;7.68;81.84;92813.66;4981356;28;20061;-86
2023/03/11 02:37:17;;;;;;;4.90;2.58;;;;;;;8.39;81.00;92908.84;5000261;28;20033;-84
2023/03/11 02:39:44;;;;;;;3.72;2.05;;;;;;;7.93;81.27;92867.00;5013456;28;20044;-85
2023/03/11 02:42:17;;;;;;;3.42;1.83;;;;;;;8.26;81.37;92913.63;4997449;28;20035;-86
2023/03/11 02:44:44;;;;;;;2.60;1.50;;;;;;;8.17;82.28;92940.47;5014498;28;20044;-85
2023/03/11 02:47:10;;;;;;;2.38;1.67;;;;;;;7.93;82.28;92908.38;4997540;28;20034;-86
2023/03/11 02:49:35;;;;;;;2.30;1.40;;;;;;;7.96;81.66;92896.91;4980785;28;20124;-85
2023/03/11 02:52:01;;;;;;;3.20;1.90;;;;;;;7.70;82.08;92851.28;4997512;28;20431;-85
2023/03/11 02:54:27;;;;;;;2.65;1.70;;;;;;;7.96;81.01;92882.22;4996342;28;20033;-85
2023/03/11 02:56:52;;;;;;;2.28;1.58;;;;;;;7.71;81.44;92858.06;4996911;28;20498;-86
2023/03/11 02:59:18;;;;;;;2.63;2.08;;;;;;;8.55;81.66;92990.03;5013977;28;20091;-86
2023/03/11 03:01:43;;;;;;;3.28;2.10;;;;;;;7.70;81.20;92840.16;4991489;28;20037;-84
2023/03/11 03:04:09;;;;;;;2.63;1.90;;;;;;;7.22;81.56;92787.38;4996718;28;20107;-86
2023/03/11 03:06:34;;;;;;;4.60;3.25;;;;;;;7.66;81.39;92857.75;4996970;28;20462;-86
2023/03/11 03:09:00;;;;;;;4.22;3.17;;;;;;;7.44;82.24;92845.38;4981046;28;20037;-85
2023/03/11 03:11:26;;;;;;;3.67;2.80;;;;;;;7.76;82.12;92889.44;5012879;28;20049;-86
2023/03/11 03:13:51;;;;;;;3.95;3.38;;;;;;;7.79;81.99;92870.22;5013246;28;20037;-86
2023/03/11 03:16:17;;;;;;;4.75;3.17;;;;;;;8.11;82.19;92905.69;4997083;28;20021;-86
2023/03/11 03:18:42;;;;;;;5.70;2.95;;;;;;;8.46;82.29;92971.91;5028997;28;20099;-86
2023/03/11 03:21:08;;;;;;;3.85;2.90;;;;;;;7.56;81.77;92808.78;4980815;28;20029;-86
2023/03/11 03:23:36;;;;;;;4.40;3.17;;;;;;;7.94;81.28;92853.13;5009737;28;20061;-86
2023/03/11 03:26:03;;;;;;;4.53;3.20;;;;;;;8.44;81.47;92932.47;5016380;28;20103;-86
2023/03/11 03:28:28;;;;;;;6.38;4.15;;;;;;;7.79;80.45;92821.91;5008478;28;20033;-86
2023/03/11 03:30:54;;;;;;;5.18;3.30;;;;;;;7.55;80.94;92796.00;4980573;28;20439;-86
2023/03/11 03:33:19;;;;;;;4.43;3.65;;;;;;;8.65;80.28;92941.53;5028630;28;20502;-86
2023/03/11 03:35:45;;;;;;;3.92;2.67;;;;;;;8.09;79.54;92870.63;4999686;28;20041;-81
2023/03/11 03:38:10;;;;;;;3.20;2.40;;;;;;;8.47;79.53;92921.78;5035799;28;20038;-86
2023/03/11 03:40:36;;;;;;;3.17;2.50;;;;;;;8.49;79.72;92942.31;4983767;28;20034;-86
2023/03/11 03:43:02;;;;;;;2.97;2.10;;;;;;;8.44;78.03;92898.00;4992466;28;20479;-86
2023/03/11 03:45:27;;;;;;;4.18;2.20;;;;;;;8.29;77.45;92877.09;5000046;28;20144;-86
2023/03/11 03:47:53;;;;;;;2.80;1.75;;;;;;;7.98;75.71;92823.41;5016208;28;20014;-86
2023/03/11 03:50:19;;;;;;;3.40;1.88;;;;;;;8.26;77.04;92874.84;4999764;28;20490;-86
2023/03/11 03:52:44;;;;;;;3.00;1.95;;;;;;;7.92;77.88;92820.66;5005695;28;20516;-85
2023/03/11 03:55:10;;;;;;;2.40;1.90;;;;;;;7.90;78.89;92807.06;4983690;28;20026;-86
2023/03/11 03:57:36;;;;;;;2.72;1.98;;;;;;;8.18;78.92;92860.09;5033867;28;20034;-86
2023/03/11 04:00:03;;;;;;;2.50;1.60;;;;;;;7.68;79.38;92769.72;5036754;28;20451;-86
2023/03/11 04:02:28;;;;;;;4.30;1.20;;;;;;;8.62;78.61;92934.91;4998102;28;20025;-86
2023/03/11 04:04:54;;;;;;;2.47;1.20;;;;;;;8.21;78.55;92856.41;4981493;28;20474;-86
2023/03/11 04:07:20;;;;;;;1.90;1.08;;;;;;;8.45;78.62;92892.69;5014074;28;20036;-86
2023/03/11 04:09:45;;;;;;;1.90;1.40;;;;;;;8.00;79.05;92836.97;5035442;28;20033;-85
2023/03/11 04:12:13;;;;;;;3.97;1.02;;;;;;;8.45;79.87;92915.97;5012855;28;20043;-86
2023/03/11 04:14:39;;;;;;;1.60;1.00;;;;;;;8.43;79.57;92922.25;4997812;28;20090;-86
2023/03/11 04:17:05;;;;;;;2.33;1.05;;;;;;;7.67;79.97;92807.69;4996020;28;20033;-85
2023/03/11 04:19:31;;;;;;;1.80;1.30;;;;;;;8.09;79.15;92860.28;4998681;28;20039;-84
2023/03/11 04:21:56;;;;;;;2.47;1.70;;;;;;;8.78;79.39;92966.97;5005628;28;20029;-86
2023/03/11 04:24:22;;;;;;;3.85;3.30;;;;;;;8.17;79.37;92857.69;4983265;28;20040;-86
2023/03/11 04:26:49;;;;;;;3.83;3.10;;;;;;;8.30;79.79;92889.06;4997825;28;20420;-86
2023/03/11 04:29:15;;;;;;;3.10;2.47;;;;;;;8.66;79.61;92940.56;5000340;28;20036;-85
2023/03/11 04:31:40;;;;;;;3.10;2.30;;;;;;;7.76;79.44;92811.88;5018314;28;20037;-86
2023/03/11 04:34:06;;;;;;;3.30;2.17;;;;;;;8.36;78.72;92890.19;5001902;28;20480;-85
2023/03/11 04:36:32;;;;;;;4.00;2.80;;;;;;;8.00;78.75;92836.97;5012850;28;20052;-86
2023/03/11 04:38:57;;;;;;;3.10;2.42;;;;;;;8.40;79.54;92899.31;4998680;28;20491;-86
2023/03/11 04:41:23;;;;;;;6.25;4.10;;;;;;;8.89;80.12;92967.44;4988287;28;20124;-83
2023/03/11 04:43:48;;;;;;;16.98;15.38;;;;;;;8.95;79.17;92959.03;5032422;28;20042;-75
2023/03/11 04:46:14;;;;;;;2.10;1.50;;;;;;;8.65;79.32;92960.47;5019912;28;20033;-80
2023/03/11 04:48:40;;;;;;;2.13;1.38;;;;;;;8.39;79.11;92939.09;5045503;28;20029;-77
2023/03/11 04:51:08;;;;;;;2.00;1.33;;;;;;;8.07;79.54;92892.25;5020396;28;20041;-82
2023/03/11 04:53:34;;;;;;;1.88;1.35;;;;;;;8.14;80.04;92882.09;5009863;28;20061;-83
2023/03/11 04:56:00;;;;;;;1.75;0.95;;;;;;;8.29;79.74;92903.78;5036312;28;20051;-83
2023/03/11 04:58:25;;;;;;;1.30;0.80;;;;;;;8.74;77.70;92979.41;5034855;28;20059;-83
2023/03/11 05:00:51;;;;;;;1.20;0.77;;;;;;;8.46;77.08;92935.69;5013598;28;20017;-83
2023/03/11 05:03:16;;;;;;;2.05;0.77;;;;;;;8.82;76.73;92982.00;4997393;28;20423;-83
2023/03/11 05:05:43;;;;;;;1.08;0.75;;;;;;;7.87;77.36;92831.47;5013730;28;20057;-83
2023/03/11 05:08:08;;;;;;;1.75;0.88;;;;;;;8.05;78.01;92876.09;5036006;28;20493;-83
2023/03/11 05:10:34;;;;;;;2.78;1.20;;;;;;;8.09;78.59;92873.19;5038408;28;20059;-83
2023/03/11 05:12:59;;;;;;;2.83;1.40;;;;;;;8.68;78.38;92952.38;5041117;28;20558;-82
2023/03/11 05:15:25;;;;;;;1.42;1.02;;;;;;;8.13;76.97;92877.88;5035748;28;20017;-83
2023/03/11 05:17:51;;;;;;;2.50;1.55;;;;;;;8.94;76.07;92998.84;5047551;28;20510;-83
2023/03/11 05:20:17;;;;;;;1.33;1.00;;;;;;;8.49;75.69;92917.25;5026356;28;20163;-82
2023/03/11 05:22:42;;;;;;;2.92;0.90;;;;;;;8.48;76.31;92932.94;5038836;28;20629;-83
2023/03/11 05:25:08;;;;;;;1.50;0.80;;;;;;;8.98;77.37;92996.75;5016744;28;20108;-82
2023/03/11 05:27:33;;;;;;;1.77;0.98;;;;;;;8.68;75.37;92964.50;5042951;28;20479;-83
2023/03/11 05:29:59;;;;;;;2.63;0.80;;;;;;;8.67;77.27;92935.22;5047824;28;20060;-83
2023/03/11 05:32:24;;;;;;;1.20;0.75;;;;;;;8.84;71.86;92949.00;5033034;28;20502;-83
2023/03/11 05:34:51;;;;;;;1.40;0.88;;;;;;;9.08;73.66;92981.03;5016920;28;20029;-82
2023/03/11 05:37:16;;;;;;;2.03;0.80;;;;;;;8.95;73.07;92969.38;5033332;28;20032;-83
2023/03/11 05:39:42;;;;;;;2.30;1.10;;;;;;;9.11;73.47;93006.59;5017279;28;20044;-83
2023/03/11 05:42:07;;;;;;;5.00;2.47;;;;;;;9.21;73.14;93011.63;5033233;28;20028;-83
2023/03/11 05:44:33;;;;;;;5.72;2.80;;;;;;;9.23;75.54;93020.88;5011790;28;20279;-82
2023/03/11 05:46:59;;;;;;;4.13;2.30;;;;;;;9.05;73.53;92997.69;5029342;28;20033;-83
2023/03/11 05:49:25;;;;;;;4.38;2.08;;;;;;;9.22;72.37;93016.66;5019928;28;20032;-82
2023/03/11 05:51:50;;;;;;;3.25;2.28;;;;;;;9.02;74.61;92985.06;5047516;28;20024;-82
2023/03/11 05:54:16;;;;;;;2.90;1.80;;;;;;;9.35;75.32;93032.50;5025498;28;20047;-82
2023/03/11 05:56:42;;;;;;;2.35;1.60;;;;;;;9.12;75.67;92992.69;4999085;28;20082;-83
2023/03/11 05:59:08;;;;;;;2.13;1.40;;;;;;;8.91;74.78;92955.16;4994100;28;20134;-82
2023/03/11 06:01:34;;;;;;;1.33;0.95;;;;;;;9.28;74.70;93030.75;5022367;28;20487;-82
2023/03/11 06:04:00;;;;;;;3.13;0.82;;;;;;;9.43;74.89;93041.25;5043003;28;20072;-82
2023/03/11 06:06:26;;;;;;;1.30;0.80;;;;;;;9.46;75.46;93053.91;5041948;28;20077;-83
2023/03/11 06:08:51;;;;;;;1.23;0.88;;;;;;;8.95;75.07;92971.97;5027521;28;20124;-82
2023/03/11 06:11:17;;;;;;;2.17;1.27;;;;;;;9.07;75.55;92982.81;5025109;28;20053;-82
2023/03/11 06:13:43;;;;;;;3.58;1.63;;;;;;;9.50;75.63;93055.19;5043087;28;20044;-82
2023/03/11 06:16:09;;;;;;;1.92;1.30;;;;;;;8.95;76.21;92964.19;5008592;28;20037;-82
2023/03/11 06:18:34;;;;;;;5.55;2.88;;;;;;;9.19;75.53;92983.28;5005164;28;20095;-82
2023/03/11 06:21:02;;;;;;;3.45;2.25;;;;;;;9.10;75.16;93042.06;5039147;28;20159;-82
2023/03/11 06:23:28;;;;;;;4.53;3.33;;;;;;;8.86;76.22;93062.75;4998634;28;20038;-82
2023/03/11 06:25:57;;;;;;;4.60;3.13;;;;;;;8.47;75.48;92965.78;5038323;28;20041;-82
2023/03/11 06:28:23;;;;;;;3.40;2.50;;;;;;;9.20;76.09;93049.69;5022754;28;20038;-82
2023/03/11 06:30:48;;;;;;;2.47;1.83;;;;;;;8.78;76.53;92960.00;5018600;28;20018;-82
2023/03/11 06:33:14;;;;;;;2.83;1.70;;;;;;;9.31;75.10;93022.66;5018600;28;20132;-83
2023/03/11 06:35:40;;;;;;;2.30;1.30;;;;;;;9.31;75.12;93035.59;5044733;28;20421;-83
2023/03/11 06:38:05;;;;;;;2.42;1.55;;;;;;;9.62;76.82;93061.66;5000335;28;20049;-82
2023/03/11 06:40:31;;;;;;;2.10;1.30;;;;;;;9.56;77.34;93047.56;5015623;28;20490;-83
2023/03/11 06:42:57;;;;;;;2.20;1.50;;;;;;;9.11;78.10;92976.34;5050027;28;20060;-83
2023/03/11 06:45:22;;;;;;;2.17;1.48;;;;;;;9.18;76.52;92979.09;5038795;28;20056;-82
2023/03/11 06:47:48;;;;;;;2.53;1.80;;;;;;;9.27;75.22;92980.69;5018502;28;20029;-78
2023/03/11 06:50:13;;;;;;;3.03;2.10;;;;;;;9.97;76.98;93059.66;5012459;28;20051;-78
2023/03/11 06:52:39;;;;;;;5.18;4.07;;;;;;;10.06;75.49;93051.69;5031704;28;20029;-83
2023/03/11 06:55:05;;;;;;;4.95;3.50;;;;;;;9.94;75.37;93047.81;5014929;28;20048;-83
2023/03/11 06:57:31;;;;;;;4.35;2.33;;;;;;;9.67;75.79;92996.34;5019800;28;20121;-82
2023/03/11 06:59:57;;;;;;;3.55;1.85;;;;;;;9.62;74.99;92973.53;4993251;28;20036;-79
2023/03/11 07:02:22;;;;;;;1.85;1.08;;;;;;;10.19;72.51;93048.56;5020333;28;20025;-75
2023/03/11 07:04:48;;;;;;;2.10;1.30;;;;;;;10.32;71.99;93062.84;5047769;28;20475;-75
2023/03/11 07:07:14;;;;;;;2.33;1.45;;;;;;;10.31;72.08;93053.41;5049176;28;20406;-85
2023/03/11 07:09:39;;;;;;;2.40;1.70;;;;;;;10.37;72.06;93071.75;5025508;28;20021;-77
2023/03/11 07:12:05;;;;;;;5.28;2.83;;;;;;;10.50;71.85;93060.78;5029759;28;20157;-78
2023/03/11 07:14:30;;;;;;;12.40;7.03;;;;;;;10.65;72.40;93066.09;5047492;28;20115;-79
2023/03/11 07:16:56;;;;;;;10.90;7.03;;;;;;;10.77;70.88;93027.56;5050034;28;20385;-79
2023/03/11 07:19:21;;;;;;;6.70;3.25;;;;;;;11.02;70.41;93062.00;5062256;28;20024;-79
2023/03/11 07:21:47;;;;;;;3.65;2.50;;;;;;;10.88;68.79;93024.56;5073190;28;20036;-79
2023/03/11 07:24:13;;;;;;;3.20;2.25;;;;;;;11.12;68.20;93047.00;5073243;28;20498;-80
2023/03/11 07:26:39;;;;;;;2.63;1.80;;;;;;;10.93;68.98;93032.66;5055612;28;20401;-79
2023/03/11 07:29:04;;;;;;;2.00;1.30;;;;;;;11.21;65.48;93038.16;5028497;28;20034;-79
2023/03/11 07:31:31;;;;;;;2.13;1.20;;;;;;;10.94;63.70;92980.53;5025587;28;20571;-79
2023/03/11 07:33:58;;;;;;;2.10;1.10;;;;;;;11.44;64.18;93043.34;5037740;28;20067;-79
2023/03/11 07:36:23;;;;;;;2.40;0.98;;;;;;;11.56;60.80;93039.34;5027136;28;20415;-79
2023/03/11 07:38:54;;;;;;;2.65;1.30;;;;;;;11.51;63.88;93027.84;5043102;28;20021;-79
2023/03/11 07:41:19;;;;;;;2.88;1.35;;;;;;;11.68;60.47;93031.94;5030037;28;20068;-79
2023/03/11 07:43:45;;;;;;;3.15;1.17;;;;;;;11.90;62.08;93021.69;5053886;28;20033;-79
2023/03/11 07:46:17;;;;;;;2.08;1.20;;;;;;;11.96;56.05;93005.34;5050459;28;20040;-79
2023/03/11 07:48:43;;;;;;;1.80;0.90;;;;;;;11.79;56.20;92932.63;5049940;28;20021;-78
2023/03/11 07:51:16;;;;;;;2.28;0.90;;;;;;;12.31;55.40;92988.16;5043492;28;20111;-79
2023/03/11 07:53:42;;;;;;;1.17;0.68;;;;;;;12.69;55.38;93009.66;5008664;28;20123;-79
2023/03/11 07:56:08;;;;;;;1.48;0.80;;;;;;;12.64;55.25;92998.16;5049951;28;20112;-79
2023/03/11 07:58:34;;;;;;;1.80;1.00;;;;;;;12.79;52.88;92936.44;5027776;28;20056;-79
2023/03/11 08:01:05;;;;;;;2.05;0.82;;;;;;;12.82;54.62;92915.19;5012880;28;20041;-79
2023/03/11 08:03:31;;;;;;;1.23;0.80;;;;;;;13.07;51.77;92913.00;5048625;28;20037;-79
2023/03/11 08:05:57;;;;;;;1.42;0.88;;;;;;;13.72;50.85;92980.72;5049513;28;20040;-79
2023/03/11 08:08:22;;;;;;;1.15;0.70;;;;;;;13.94;50.12;92984.09;5010862;28;20029;-79
2023/03/11 08:10:48;;;;;;;2.97;1.05;;;;;;;14.27;48.87;92979.03;5022486;28;20056;-79
2023/03/11 08:13:13;;;;;;;1.85;0.70;;;;;;;14.33;48.70;92961.78;5042496;28;20411;-79
2023/03/11 08:15:39;;;;;;;2.22;1.00;;;;;;;14.50;46.36;92963.88;5043540;28;20041;-79
2023/03/11 08:18:04;;;;;;;2.25;0.93;;;;;;;14.40;47.14;92931.25;5024762;28;20121;-79
2023/03/11 08:20:30;;;;;;;2.72;1.30;;;;;;;14.96;45.45;92960.63;5015303;28;20128;-79
2023/03/11 08:22:55;;;;;;;1.85;0.90;;;;;;;14.28;42.88;92863.13;5022905;28;20087;-79
2023/03/11 08:25:21;;;;;;;1.60;0.82;;;;;;;14.93;42.58;92953.19;5014017;28;20041;-79
2023/03/11 08:27:47;;;;;;;2.60;0.88;;;;;;;14.59;42.73;92888.75;5035659;28;20016;-79
2023/03/11 08:30:13;;;;;;;2.22;1.10;;;;;;;15.29;43.18;92953.81;5039469;28;20040;-79
2023/03/11 08:32:38;;;;;;;1.38;0.80;;;;;;;15.44;41.54;92954.41;5052015;28;20017;-79
2023/03/11 08:35:04;;;;;;;1.73;0.93;;;;;;;15.50;42.79;92931.88;5031773;28;20029;-79
2023/03/11 08:37:30;;;;;;;2.85;1.00;;;;;;;15.71;40.38;92930.88;5050770;28;20021;-79
2023/03/11 08:39:56;;;;;;;2.15;1.13;;;;;;;15.98;40.20;92939.47;5048562;28;20495;-78
2023/03/11 08:42:21;;;;;;;3.92;1.20;;;;;;;15.56;39.85;92913.53;5051581;28;20039;-79
2023/03/11 08:44:46;;;;;;;1.92;0.90;;;;;;;15.86;40.66;92926.22;5051608;28;20032;-79
2023/03/11 08:47:12;;;;;;;2.88;1.30;;;;;;;15.83;40.71;92916.16;5050784;28;20028;-79
2023/03/11 08:49:37;;;;;;;3.83;1.33;;;;;;;16.18;38.88;92919.28;5037684;28;20025;-79
2023/03/11 08:52:03;;;;;;;1.90;1.27;;;;;;;16.18;38.74;92919.28;5055077;28;20507;-79
2023/03/11 08:54:29;;;;;;;1.85;1.17;;;;;;;16.16;39.38;92908.22;5072401;28;20032;-79
2023/03/11 08:56:54;;;;;;;5.53;1.42;;;;;;;16.24;38.79;92887.03;5038319;28;20036;-79
2023/03/11 08:59:20;;;;;;;3.10;1.00;;;;;;;16.19;37.90;92878.97;5054674;28;20097;-79
2023/03/11 09:01:45;;;;;;;1.83;0.98;;;;;;;16.37;39.31;92901.88;5037960;28;20043;-79
2023/03/11 09:04:11;;;;;;;2.10;1.00;;;;;;;16.13;38.53;92858.03;5038012;28;20090;-79
2023/03/11 09:06:41;;;;;;;2.28;1.10;;;;;;;16.43;39.64;92895.78;5053701;28;20039;-79
2023/03/11 09:09:07;;;;;;;1.65;0.90;;;;;;;16.31;39.64;92887.00;5038105;28;20032;-79
2023/03/11 09:11:36;;;;;;;2.78;0.85;;;;;;;16.43;39.42;92887.13;5054390;28;20052;-80
2023/03/11 09:14:01;;;;;;;3.00;1.33;;;;;;;16.40;37.67;92890.16;5022048;28;20085;-80
2023/03/11 09:16:27;;;;;;;3.15;1.50;;;;;;;16.16;39.85;92883.81;5037856;28;20029;-79
2023/03/11 09:18:52;;;;;;;1.60;0.80;;;;;;;16.21;38.57;92891.84;5037696;28;20090;-82
2023/03/11 09:21:21;;;;;;;2.70;0.85;;;;;;;16.01;38.26;92889.31;5070980;28;20032;-79
2023/03/11 09:23:47;;;;;;;1.83;1.00;;;;;;;15.81;38.37;92881.53;5021535;28;20088;-79
2023/03/11 09:26:12;;;;;;;2.33;1.05;;;;;;;15.84;39.78;92889.75;5032120;28;20029;-78
2023/03/11 09:28:38;;;;;;;3.17;0.90;;;;;;;16.00;40.74;92891.13;5032439;28;20029;-78
2023/03/11 09:31:04;;;;;;;1.73;1.00;;;;;;;15.91;40.25;92883.69;5016736;28;20037;-78
2023/03/11 09:33:29;;;;;;;2.58;0.90;;;;;;;15.86;40.73;92882.50;5013542;28;20089;-79
2023/03/11 09:35:56;;;;;;;2.13;1.10;;;;;;;15.71;41.60;92875.91;5032152;28;20037;-79
2023/03/11 09:38:22;;;;;;;2.55;1.30;;;;;;;15.67;41.37;92867.63;5031305;28;20048;-78
2023/03/11 09:40:56;;;;;;;2.67;1.27;;;;;;;15.43;41.29;92856.00;5035053;28;20418;-80
2023/03/11 09:43:47;;;;;;;2.40;1.00;;;;;;;15.43;41.05;92876.91;5053936;28;20028;-79
2023/03/11 09:46:23;;;;;;;2.45;1.15;;;;;;;15.46;39.57;92866.06;5054902;28;20048;-79
2023/03/11 09:48:58;;;;;;;5.88;1.20;;;;;;;15.37;40.16;92860.22;5053628;28;20430;-80
2023/03/11 09:51:28;;;;;;;1.80;1.00;;;;;;;15.48;38.12;92858.81;5038266;28;20051;-79
2023/03/11 09:53:55;;;;;;;4.07;1.17;;;;;;;15.50;38.87;92866.47;5037077;28;20418;-80
2023/03/11 09:56:21;;;;;;;2.33;1.00;;;;;;;15.55;39.23;92843.91;5037308;28;20418;-79
2023/03/11 09:58:47;;;;;;;5.45;1.10;;;;;;;15.71;39.39;92866.25;5020624;28;20028;-80
2023/03/11 10:01:22;;;;;;;3.53;1.40;;;;;;;15.93;38.73;92863.34;5053626;28;20032;-79
2023/03/11 10:03:47;;;;;;;2.42;1.30;;;;;;;15.98;37.92;92863.53;5053621;28;20051;-80
2023/03/11 10:06:19;;;;;;;1.40;1.00;;;;;;;16.12;38.03;92872.16;5011817;28;20531;-81
2023/03/11 10:09:12;;;;;;;3.78;1.23;;;;;;;16.15;36.57;92848.16;5022343;28;20550;-84
2023/03/11 10:11:47;;;;;;;2.50;1.20;;;;;;;16.44;37.56;92875.66;5014931;28;20061;-82
2023/03/11 10:14:38;;;;;;;2.33;1.00;;;;;;;16.53;37.56;92880.44;5031356;28;20033;-82
2023/03/11 10:17:13;;;;;;;4.10;1.20;;;;;;;16.39;37.26;92884.13;5013291;28;20037;-82
2023/03/11 10:19:55;;;;;;;3.17;1.60;;;;;;;16.34;37.19;92886.56;5031080;28;20512;-83
2023/03/11 10:22:23;;;;;;;2.15;1.08;;;;;;;16.29;36.92;92878.53;4997136;28;20033;-83
2023/03/11 10:25:10;;;;;;;2.13;1.10;;;;;;;16.45;37.24;92892.97;5013120;28;20495;-80
2023/03/11 10:27:47;;;;;;;1.92;1.10;;;;;;;16.51;36.54;92874.59;4999684;28;20342;-81
2023/03/11 10:30:26;;;;;;;3.25;1.00;;;;;;;16.72;37.19;92885.78;5013538;28;20030;-81
2023/03/11 10:33:33;;;;;;;1.98;1.00;;;;;;;16.63;37.68;92887.84;5037519;28;20044;-81
2023/03/11 10:36:02;;;;;;;2.00;1.10;;;;;;;16.53;36.65;92892.72;5017045;28;20041;-80
2023/03/11 10:38:45;;;;;;;2.17;0.98;;;;;;;16.58;36.55;92886.88;5017191;28;20032;-81
2023/03/11 10:41:39;;;;;;;2.05;0.85;;;;;;;16.50;36.24;92890.53;5033952;28;20487;-81
2023/03/11 10:44:20;;;;;;;2.25;1.15;;;;;;;16.19;36.63;92865.88;5018757;28;20490;-83
2023/03/11 10:46:45;;;;;;;;;;;;;;;16.15;37.33;92888.25;5001643;28;20048;-82
2023/03/11 10:49:14;;;;;;;2.17;1.10;;;;;;;15.75;37.80;92856.97;5051877;28;19928;-83
2023/03/11 10:51:40;;;;;;;2.38;1.30;;;;;;;15.50;37.40;92814.94;5016669;28;20034;-83
2023/03/11 10:54:06;;;;;;;1.90;1.15;;;;;;;15.74;37.73;92871.09;5019466;28;20060;-84
2023/03/11 10:56:36;;;;;;;4.05;1.10;;;;;;;15.72;37.58;92882.75;5036501;28;20025;-83
2023/03/11 10:59:04;;;;;;;2.75;0.90;;;;;;;15.64;36.53;92868.84;5019071;28;20044;-83
2023/03/11 11:01:29;;;;;;;8.05;5.07;;;;;;;15.54;38.23;92892.00;5017471;28;20037;-82
2023/03/11 11:03:56;;;;;;;5.15;2.70;;;;;;;14.71;39.54;92808.78;5019556;28;20036;-80
2023/03/11 11:06:31;;;;;;;12.43;6.15;;;;;;;14.43;42.28;92831.63;5002438;28;20051;-82
2023/03/11 11:09:06;;;;;;;26.95;13.95;;;;;;;14.18;43.78;92839.19;5019331;28;20519;-83
2023/03/11 11:11:32;;;;;;;18.88;10.70;;;;;;;13.97;45.93;92834.91;5017909;28;20049;-82
2023/03/11 11:13:59;;;;;;;5.43;3.22;;;;;;;14.41;47.43;92922.44;5018189;28;20044;-80
2023/03/11 11:16:24;;;;;;;5.13;2.97;;;;;;;14.30;50.49;92902.91;5045031;28;20625;-80
2023/03/11 11:18:54;;;;;;;3.58;1.58;;;;;;;14.08;49.56;92889.19;5020691;28;20022;-79
2023/03/11 11:21:39;;;;;;;7.43;5.28;;;;;;;14.32;50.90;92908.75;5024093;28;20561;-80
2023/03/11 11:24:23;;;;;;;6.35;4.68;;;;;;;14.46;51.18;92907.00;5040370;28;20030;-80
2023/03/11 11:27:02;;;;;;;4.70;3.80;;;;;;;14.42;50.32;92909.19;5009931;28;20048;-80
2023/03/11 11:29:34;;;;;;;3.80;2.13;;;;;;;13.92;48.90;92819.03;5040743;28;20435;-80
2023/03/11 11:32:20;;;;;;;4.65;2.90;;;;;;;14.45;50.19;92887.88;4999660;28;20032;-80
2023/03/11 11:35:13;;;;;;;4.63;2.72;;;;;;;14.39;49.01;92885.25;5030512;28;20061;-80
2023/03/11 11:37:45;;;;;;;2.47;1.55;;;;;;;14.26;50.23;92868.56;5004981;28;20041;-81
2023/03/11 11:40:13;;;;;;;3.70;1.45;;;;;;;14.37;53.29;92879.41;4995847;28;20045;-82
2023/03/11 11:42:41;;;;;;;4.07;1.30;;;;;;;14.37;53.58;92875.00;5027643;28;20088;-81